sensor_id;sensor_type;location;lat;lon;timestamp;P1;durP1;ratioP1;P2;durP2;ratioP2
55009;SDS011;40903;51.638;7.528;2024-03-02T00:02:24;3.17;;;1.37;;
55009;SDS011;40903;51.638;7.528;2024-03-02T00:04:50;2.27;;;1.67;;
55009;SDS011;40903;51.638;7.528;2024-03-02T00:07:16;2.97;;;1.83;;
55009;SDS011;40903;51.638;7.528;2024-03-02T00:09:42;3.70;;;2.03;;
55009;SDS011;40903;51.638;7.528;2024-03-02T00:12:08;3.40;;;2.40;;
55009;SDS011;40903;51.638;7.528;2024-03-02T00:14:39;2.90;;;1.97;;
55009;SDS011;40903;51.638;7.528;2024-03-02T00:17:05;3.53;;;2.17;;
55009;SDS011;40903;51.638;7.528;2024-03-02T00:19:43;2.93;;;1.70;;
55009;SDS011;40903;51.638;7.528;2024-03-02T00:22:08;3.47;;;1.73;;
55009;SDS011;40903;51.638;7.528;2024-03-02T00:24:34;2.50;;;1.50;;
55009;SDS011;40903;51.638;7.528;2024-03-02T00:27:01;1.83;;;1.60;;
55009;SDS011;40903;51.638;7.528;2024-03-02T00:29:29;2.87;;;1.80;;
55009;SDS011;40903;51.638;7.528;2024-03-02T00:31:54;1.50;;;1.30;;
55009;SDS011;40903;51.638;7.528;2024-03-02T00:34:21;2.63;;;1.90;;
55009;SDS011;40903;51.638;7.528;2024-03-02T00:36:47;4.00;;;1.80;;
55009;SDS011;40903;51.638;7.528;2024-03-02T00:39:13;3.27;;;1.60;;
55009;SDS011;40903;51.638;7.528;2024-03-02T00:41:42;1.97;;;1.30;;
55009;SDS011;40903;51.638;7.528;2024-03-02T00:44:15;2.47;;;1.53;;
55009;SDS011;40903;51.638;7.528;2024-03-02T00:46:41;1.80;;;1.30;;
55009;SDS011;40903;51.638;7.528;2024-03-02T00:49:21;4.73;;;1.50;;
55009;SDS011;40903;51.638;7.528;2024-03-02T00:51:49;2.00;;;1.70;;
55009;SDS011;40903;51.638;7.528;2024-03-02T00:54:19;1.43;;;1.33;;
55009;SDS011;40903;51.638;7.528;2024-03-02T00:56:45;2.10;;;1.10;;
55009;SDS011;40903;51.638;7.528;2024-03-02T00:59:12;1.33;;;1.20;;
55009;SDS011;40903;51.638;7.528;2024-03-02T01:01:37;2.40;;;1.33;;
55009;SDS011;40903;51.638;7.528;2024-03-02T01:04:03;2.87;;;1.60;;
55009;SDS011;40903;51.638;7.528;2024-03-02T01:06:30;2.17;;;1.00;;
55009;SDS011;40903;51.638;7.528;2024-03-02T01:08:55;1.93;;;1.43;;
55009;SDS011;40903;51.638;7.528;2024-03-02T01:11:21;1.20;;;1.10;;
55009;SDS011;40903;51.638;7.528;2024-03-02T01:13:47;3.23;;;1.20;;
55009;SDS011;40903;51.638;7.528;2024-03-02T01:16:12;2.43;;;1.30;;
55009;SDS011;40903;51.638;7.528;2024-03-02T01:18:38;3.50;;;0.90;;
55009;SDS011;40903;51.638;7.528;2024-03-02T01:21:04;1.47;;;1.10;;
55009;SDS011;40903;51.638;7.528;2024-03-02T01:23:29;2.40;;;1.30;;
55009;SDS011;40903;51.638;7.528;2024-03-02T01:25:55;1.40;;;0.93;;
55009;SDS011;40903;51.638;7.528;2024-03-02T01:28:20;0.70;;;0.70;;
55009;SDS011;40903;51.638;7.528;2024-03-02T01:30:46;2.43;;;1.00;;
55009;SDS011;40903;51.638;7.528;2024-03-02T01:33:12;0.87;;;0.80;;
55009;SDS011;40903;51.638;7.528;2024-03-02T01:35:38;3.30;;;1.00;;
55009;SDS011;40903;51.638;7.528;2024-03-02T01:38:03;1.00;;;0.90;;
55009;SDS011;40903;51.638;7.528;2024-03-02T01:40:31;1.40;;;0.83;;
55009;SDS011;40903;51.638;7.528;2024-03-02T01:43:00;2.10;;;1.00;;
55009;SDS011;40903;51.638;7.528;2024-03-02T01:45:26;2.00;;;1.00;;
55009;SDS011;40903;51.638;7.528;2024-03-02T01:47:51;1.77;;;1.10;;
55009;SDS011;40903;51.638;7.528;2024-03-02T01:50:27;1.10;;;0.80;;
55009;SDS011;40903;51.638;7.528;2024-03-02T01:52:54;2.03;;;0.90;;
55009;SDS011;40903;51.638;7.528;2024-03-02T01:55:23;0.80;;;0.70;;
55009;SDS011;40903;51.638;7.528;2024-03-02T01:57:49;3.13;;;0.90;;
55009;SDS011;40903;51.638;7.528;2024-03-02T02:00:19;1.20;;;0.70;;
55009;SDS011;40903;51.638;7.528;2024-03-02T02:02:45;1.30;;;1.20;;
55009;SDS011;40903;51.638;7.528;2024-03-02T02:05:12;1.00;;;0.80;;
55009;SDS011;40903;51.638;7.528;2024-03-02T02:07:38;0.73;;;0.73;;
55009;SDS011;40903;51.638;7.528;2024-03-02T02:10:05;1.80;;;0.93;;
55009;SDS011;40903;51.638;7.528;2024-03-02T02:12:31;1.70;;;1.00;;
55009;SDS011;40903;51.638;7.528;2024-03-02T02:14:57;1.73;;;0.97;;
55009;SDS011;40903;51.638;7.528;2024-03-02T02:17:22;2.07;;;0.90;;
55009;SDS011;40903;51.638;7.528;2024-03-02T02:19:48;1.63;;;0.97;;
55009;SDS011;40903;51.638;7.528;2024-03-02T02:22:13;2.83;;;1.20;;
55009;SDS011;40903;51.638;7.528;2024-03-02T02:24:39;1.63;;;0.80;;
55009;SDS011;40903;51.638;7.528;2024-03-02T02:27:06;1.43;;;0.93;;
55009;SDS011;40903;51.638;7.528;2024-03-02T02:29:33;4.17;;;1.07;;
55009;SDS011;40903;51.638;7.528;2024-03-02T02:31:59;1.47;;;0.97;;
55009;SDS011;40903;51.638;7.528;2024-03-02T02:34:24;1.77;;;1.10;;
55009;SDS011;40903;51.638;7.528;2024-03-02T02:36:50;0.70;;;0.70;;
55009;SDS011;40903;51.638;7.528;2024-03-02T02:39:15;3.27;;;0.80;;
55009;SDS011;40903;51.638;7.528;2024-03-02T02:41:44;1.20;;;0.77;;
55009;SDS011;40903;51.638;7.528;2024-03-02T02:44:09;1.33;;;0.80;;
55009;SDS011;40903;51.638;7.528;2024-03-02T02:46:38;1.10;;;0.60;;
55009;SDS011;40903;51.638;7.528;2024-03-02T02:49:04;2.00;;;0.87;;
55009;SDS011;40903;51.638;7.528;2024-03-02T02:51:30;1.53;;;1.00;;
55009;SDS011;40903;51.638;7.528;2024-03-02T02:53:56;1.87;;;0.90;;
55009;SDS011;40903;51.638;7.528;2024-03-02T02:56:21;0.90;;;0.67;;
55009;SDS011;40903;51.638;7.528;2024-03-02T02:58:47;1.47;;;0.70;;
55009;SDS011;40903;51.638;7.528;2024-03-02T03:01:13;1.07;;;0.77;;
55009;SDS011;40903;51.638;7.528;2024-03-02T03:03:38;0.83;;;0.80;;
55009;SDS011;40903;51.638;7.528;2024-03-02T03:06:04;1.40;;;0.90;;
55009;SDS011;40903;51.638;7.528;2024-03-02T03:08:29;1.50;;;0.90;;
55009;SDS011;40903;51.638;7.528;2024-03-02T03:10:55;1.40;;;0.90;;
55009;SDS011;40903;51.638;7.528;2024-03-02T03:13:20;3.03;;;1.00;;
55009;SDS011;40903;51.638;7.528;2024-03-02T03:15:46;0.90;;;0.67;;
55009;SDS011;40903;51.638;7.528;2024-03-02T03:18:11;1.87;;;0.77;;
55009;SDS011;40903;51.638;7.528;2024-03-02T03:20:37;2.50;;;0.97;;
55009;SDS011;40903;51.638;7.528;2024-03-02T03:23:03;0.97;;;0.80;;
55009;SDS011;40903;51.638;7.528;2024-03-02T03:25:32;0.67;;;0.67;;
55009;SDS011;40903;51.638;7.528;2024-03-02T03:31:19;2.30;;;1.00;;
55009;SDS011;40903;51.638;7.528;2024-03-02T03:33:44;1.23;;;0.90;;
55009;SDS011;40903;51.638;7.528;2024-03-02T03:36:10;2.20;;;0.90;;
55009;SDS011;40903;51.638;7.528;2024-03-02T03:38:35;1.40;;;1.00;;
55009;SDS011;40903;51.638;7.528;2024-03-02T03:41:01;1.33;;;0.90;;
55009;SDS011;40903;51.638;7.528;2024-03-02T03:43:26;1.20;;;0.70;;
55009;SDS011;40903;51.638;7.528;2024-03-02T03:45:52;1.70;;;0.90;;
55009;SDS011;40903;51.638;7.528;2024-03-02T03:48:17;1.00;;;0.83;;
55009;SDS011;40903;51.638;7.528;2024-03-02T03:50:43;0.97;;;0.80;;
55009;SDS011;40903;51.638;7.528;2024-03-02T03:53:09;1.83;;;0.87;;
55009;SDS011;40903;51.638;7.528;2024-03-02T03:55:35;3.50;;;0.80;;
55009;SDS011;40903;51.638;7.528;2024-03-02T03:58:00;3.33;;;0.77;;
55009;SDS011;40903;51.638;7.528;2024-03-02T04:00:26;0.80;;;0.80;;
55009;SDS011;40903;51.638;7.528;2024-03-02T04:02:51;1.80;;;0.90;;
55009;SDS011;40903;51.638;7.528;2024-03-02T04:05:17;1.33;;;0.80;;
55009;SDS011;40903;51.638;7.528;2024-03-02T04:07:42;2.70;;;0.80;;
55009;SDS011;40903;51.638;7.528;2024-03-02T04:10:08;2.33;;;1.10;;
55009;SDS011;40903;51.638;7.528;2024-03-02T04:12:35;0.80;;;0.63;;
55009;SDS011;40903;51.638;7.528;2024-03-02T04:15:02;1.47;;;0.90;;
55009;SDS011;40903;51.638;7.528;2024-03-02T04:17:29;1.40;;;0.80;;
55009;SDS011;40903;51.638;7.528;2024-03-02T04:19:56;1.50;;;0.97;;
55009;SDS011;40903;51.638;7.528;2024-03-02T04:22:21;1.37;;;0.90;;
55009;SDS011;40903;51.638;7.528;2024-03-02T04:24:46;1.00;;;0.90;;
55009;SDS011;40903;51.638;7.528;2024-03-02T04:27:12;1.77;;;0.90;;
55009;SDS011;40903;51.638;7.528;2024-03-02T04:29:37;1.13;;;0.83;;
55009;SDS011;40903;51.638;7.528;2024-03-02T04:32:03;1.87;;;1.00;;
55009;SDS011;40903;51.638;7.528;2024-03-02T04:34:29;0.70;;;0.70;;
55009;SDS011;40903;51.638;7.528;2024-03-02T04:36:54;3.20;;;0.90;;
55009;SDS011;40903;51.638;7.528;2024-03-02T04:39:19;1.70;;;1.00;;
55009;SDS011;40903;51.638;7.528;2024-03-02T04:41:45;1.07;;;0.73;;
55009;SDS011;40903;51.638;7.528;2024-03-02T04:44:10;1.00;;;0.87;;
55009;SDS011;40903;51.638;7.528;2024-03-02T04:46:36;1.20;;;1.10;;
55009;SDS011;40903;51.638;7.528;2024-03-02T04:49:01;1.83;;;1.10;;
55009;SDS011;40903;51.638;7.528;2024-03-02T04:51:27;3.47;;;1.40;;
55009;SDS011;40903;51.638;7.528;2024-03-02T04:53:52;1.57;;;1.00;;
55009;SDS011;40903;51.638;7.528;2024-03-02T04:56:18;1.40;;;0.60;;
55009;SDS011;40903;51.638;7.528;2024-03-02T04:59:08;1.87;;;1.20;;
55009;SDS011;40903;51.638;7.528;2024-03-02T05:01:34;1.10;;;0.90;;
55009;SDS011;40903;51.638;7.528;2024-03-02T05:03:59;1.60;;;0.80;;
55009;SDS011;40903;51.638;7.528;2024-03-02T05:06:25;3.90;;;1.57;;
55009;SDS011;40903;51.638;7.528;2024-03-02T05:08:50;1.17;;;0.83;;
55009;SDS011;40903;51.638;7.528;2024-03-02T05:11:15;1.50;;;1.03;;
55009;SDS011;40903;51.638;7.528;2024-03-02T05:14:00;5.30;;;1.10;;
55009;SDS011;40903;51.638;7.528;2024-03-02T05:16:25;1.17;;;0.90;;
55009;SDS011;40903;51.638;7.528;2024-03-02T05:18:51;1.20;;;0.90;;
55009;SDS011;40903;51.638;7.528;2024-03-02T05:21:16;2.37;;;0.90;;
55009;SDS011;40903;51.638;7.528;2024-03-02T05:23:42;1.97;;;0.90;;
55009;SDS011;40903;51.638;7.528;2024-03-02T05:26:07;3.53;;;1.13;;
55009;SDS011;40903;51.638;7.528;2024-03-02T05:28:33;1.70;;;1.10;;
55009;SDS011;40903;51.638;7.528;2024-03-02T05:30:58;2.17;;;1.03;;
55009;SDS011;40903;51.638;7.528;2024-03-02T05:33:24;2.20;;;1.00;;
55009;SDS011;40903;51.638;7.528;2024-03-02T05:35:49;1.90;;;1.10;;
55009;SDS011;40903;51.638;7.528;2024-03-02T05:38:18;1.87;;;1.17;;
55009;SDS011;40903;51.638;7.528;2024-03-02T05:40:44;1.47;;;1.00;;
55009;SDS011;40903;51.638;7.528;2024-03-02T05:43:09;1.30;;;1.00;;
55009;SDS011;40903;51.638;7.528;2024-03-02T05:45:35;3.40;;;1.07;;
55009;SDS011;40903;51.638;7.528;2024-03-02T05:48:00;1.77;;;1.10;;
55009;SDS011;40903;51.638;7.528;2024-03-02T05:50:25;1.77;;;1.10;;
55009;SDS011;40903;51.638;7.528;2024-03-02T05:52:51;1.43;;;1.00;;
55009;SDS011;40903;51.638;7.528;2024-03-02T05:55:17;2.90;;;1.33;;
55009;SDS011;40903;51.638;7.528;2024-03-02T05:57:42;3.17;;;1.30;;
55009;SDS011;40903;51.638;7.528;2024-03-02T06:00:08;1.37;;;1.10;;
55009;SDS011;40903;51.638;7.528;2024-03-02T06:02:34;1.53;;;1.40;;
55009;SDS011;40903;51.638;7.528;2024-03-02T06:05:00;4.37;;;1.30;;
55009;SDS011;40903;51.638;7.528;2024-03-02T06:07:25;2.83;;;1.20;;
55009;SDS011;40903;51.638;7.528;2024-03-02T06:09:51;1.27;;;1.03;;
55009;SDS011;40903;51.638;7.528;2024-03-02T06:12:17;2.97;;;1.20;;
55009;SDS011;40903;51.638;7.528;2024-03-02T06:14:43;2.57;;;1.30;;
55009;SDS011;40903;51.638;7.528;2024-03-02T06:17:09;1.33;;;1.17;;
55009;SDS011;40903;51.638;7.528;2024-03-02T06:19:34;1.10;;;1.00;;
55009;SDS011;40903;51.638;7.528;2024-03-02T06:22:00;2.10;;;1.47;;
55009;SDS011;40903;51.638;7.528;2024-03-02T06:24:26;1.50;;;1.13;;
55009;SDS011;40903;51.638;7.528;2024-03-02T06:26:51;3.70;;;1.30;;
55009;SDS011;40903;51.638;7.528;2024-03-02T06:29:17;4.73;;;1.67;;
55009;SDS011;40903;51.638;7.528;2024-03-02T06:31:42;1.50;;;1.00;;
55009;SDS011;40903;51.638;7.528;2024-03-02T06:34:08;2.53;;;1.20;;
55009;SDS011;40903;51.638;7.528;2024-03-02T06:36:34;3.17;;;1.50;;
55009;SDS011;40903;51.638;7.528;2024-03-02T06:38:59;2.23;;;1.53;;
55009;SDS011;40903;51.638;7.528;2024-03-02T06:41:25;4.13;;;1.40;;
55009;SDS011;40903;51.638;7.528;2024-03-02T06:43:51;1.80;;;1.40;;
55009;SDS011;40903;51.638;7.528;2024-03-02T06:46:24;2.87;;;1.77;;
55009;SDS011;40903;51.638;7.528;2024-03-02T06:48:50;2.13;;;1.30;;
55009;SDS011;40903;51.638;7.528;2024-03-02T06:51:15;2.47;;;1.60;;
55009;SDS011;40903;51.638;7.528;2024-03-02T06:53:41;4.00;;;1.67;;
55009;SDS011;40903;51.638;7.528;2024-03-02T06:56:07;3.47;;;1.37;;
55009;SDS011;40903;51.638;7.528;2024-03-02T06:58:34;5.47;;;2.00;;
55009;SDS011;40903;51.638;7.528;2024-03-02T07:00:59;4.03;;;2.13;;
55009;SDS011;40903;51.638;7.528;2024-03-02T07:03:27;2.73;;;1.70;;
55009;SDS011;40903;51.638;7.528;2024-03-02T07:05:53;2.43;;;1.40;;
55009;SDS011;40903;51.638;7.528;2024-03-02T07:08:19;4.07;;;1.63;;
55009;SDS011;40903;51.638;7.528;2024-03-02T07:10:44;3.63;;;1.53;;
55009;SDS011;40903;51.638;7.528;2024-03-02T07:13:10;3.80;;;1.80;;
55009;SDS011;40903;51.638;7.528;2024-03-02T07:15:35;3.40;;;1.53;;
55009;SDS011;40903;51.638;7.528;2024-03-02T07:18:19;6.57;;;1.50;;
55009;SDS011;40903;51.638;7.528;2024-03-02T07:20:44;2.30;;;1.60;;
55009;SDS011;40903;51.638;7.528;2024-03-02T07:23:10;2.27;;;1.57;;
55009;SDS011;40903;51.638;7.528;2024-03-02T07:25:35;2.43;;;1.40;;
55009;SDS011;40903;51.638;7.528;2024-03-02T07:28:01;3.50;;;1.70;;
55009;SDS011;40903;51.638;7.528;2024-03-02T07:30:26;2.33;;;1.67;;
55009;SDS011;40903;51.638;7.528;2024-03-02T07:32:52;3.20;;;1.70;;
55009;SDS011;40903;51.638;7.528;2024-03-02T07:35:17;2.23;;;1.93;;
55009;SDS011;40903;51.638;7.528;2024-03-02T07:37:43;4.60;;;1.50;;
55009;SDS011;40903;51.638;7.528;2024-03-02T07:40:09;3.27;;;1.67;;
55009;SDS011;40903;51.638;7.528;2024-03-02T07:42:39;2.43;;;1.40;;
55009;SDS011;40903;51.638;7.528;2024-03-02T07:45:05;2.83;;;1.73;;
55009;SDS011;40903;51.638;7.528;2024-03-02T07:47:32;2.70;;;1.80;;
55009;SDS011;40903;51.638;7.528;2024-03-02T07:50:01;3.67;;;1.87;;
55009;SDS011;40903;51.638;7.528;2024-03-02T07:52:26;1.83;;;1.60;;
55009;SDS011;40903;51.638;7.528;2024-03-02T07:54:52;4.83;;;2.07;;
55009;SDS011;40903;51.638;7.528;2024-03-02T07:57:17;3.33;;;2.03;;
55009;SDS011;40903;51.638;7.528;2024-03-02T07:59:43;3.37;;;1.93;;
55009;SDS011;40903;51.638;7.528;2024-03-02T08:02:08;3.27;;;2.13;;
55009;SDS011;40903;51.638;7.528;2024-03-02T08:04:34;4.27;;;1.73;;
55009;SDS011;40903;51.638;7.528;2024-03-02T08:07:01;3.10;;;1.80;;
55009;SDS011;40903;51.638;7.528;2024-03-02T08:09:26;2.77;;;1.70;;
55009;SDS011;40903;51.638;7.528;2024-03-02T08:11:53;3.60;;;2.10;;
55009;SDS011;40903;51.638;7.528;2024-03-02T08:14:19;4.30;;;2.60;;
55009;SDS011;40903;51.638;7.528;2024-03-02T08:16:44;2.70;;;1.83;;
55009;SDS011;40903;51.638;7.528;2024-03-02T08:19:11;4.23;;;2.53;;
55009;SDS011;40903;51.638;7.528;2024-03-02T08:21:37;3.70;;;1.93;;
55009;SDS011;40903;51.638;7.528;2024-03-02T08:24:02;4.53;;;2.07;;
55009;SDS011;40903;51.638;7.528;2024-03-02T08:26:28;3.50;;;2.70;;
55009;SDS011;40903;51.638;7.528;2024-03-02T08:28:56;3.50;;;2.13;;
55009;SDS011;40903;51.638;7.528;2024-03-02T08:31:22;3.57;;;2.47;;
55009;SDS011;40903;51.638;7.528;2024-03-02T08:33:47;2.87;;;2.33;;
55009;SDS011;40903;51.638;7.528;2024-03-02T08:36:15;3.00;;;2.17;;
55009;SDS011;40903;51.638;7.528;2024-03-02T08:38:40;4.10;;;2.43;;
55009;SDS011;40903;51.638;7.528;2024-03-02T08:41:07;3.00;;;2.00;;
55009;SDS011;40903;51.638;7.528;2024-03-02T08:43:32;3.97;;;2.03;;
55009;SDS011;40903;51.638;7.528;2024-03-02T08:45:58;3.60;;;2.07;;
55009;SDS011;40903;51.638;7.528;2024-03-02T08:48:24;2.63;;;2.30;;
55009;SDS011;40903;51.638;7.528;2024-03-02T08:50:49;4.10;;;2.20;;
55009;SDS011;40903;51.638;7.528;2024-03-02T08:53:15;3.03;;;2.30;;
55009;SDS011;40903;51.638;7.528;2024-03-02T08:55:45;3.23;;;2.13;;
55009;SDS011;40903;51.638;7.528;2024-03-02T08:58:14;4.57;;;2.87;;
55009;SDS011;40903;51.638;7.528;2024-03-02T09:00:39;3.23;;;1.70;;
55009;SDS011;40903;51.638;7.528;2024-03-02T09:03:05;2.87;;;2.13;;
55009;SDS011;40903;51.638;7.528;2024-03-02T09:05:31;2.53;;;2.07;;
55009;SDS011;40903;51.638;7.528;2024-03-02T09:07:57;5.60;;;2.77;;
55009;SDS011;40903;51.638;7.528;2024-03-02T09:10:22;2.90;;;2.20;;
55009;SDS011;40903;51.638;7.528;2024-03-02T09:12:48;3.87;;;2.43;;
55009;SDS011;40903;51.638;7.528;2024-03-02T09:15:13;3.80;;;2.13;;
55009;SDS011;40903;51.638;7.528;2024-03-02T09:17:39;3.07;;;2.13;;
55009;SDS011;40903;51.638;7.528;2024-03-02T09:20:05;3.30;;;2.00;;
55009;SDS011;40903;51.638;7.528;2024-03-02T09:22:31;3.17;;;2.20;;
55009;SDS011;40903;51.638;7.528;2024-03-02T09:24:57;4.63;;;2.30;;
55009;SDS011;40903;51.638;7.528;2024-03-02T09:27:23;2.43;;;1.87;;
55009;SDS011;40903;51.638;7.528;2024-03-02T09:29:48;4.17;;;2.50;;
55009;SDS011;40903;51.638;7.528;2024-03-02T09:32:14;3.63;;;2.00;;
55009;SDS011;40903;51.638;7.528;2024-03-02T09:34:40;2.07;;;1.80;;
55009;SDS011;40903;51.638;7.528;2024-03-02T09:37:06;3.03;;;2.30;;
55009;SDS011;40903;51.638;7.528;2024-03-02T09:39:32;5.73;;;2.00;;
55009;SDS011;40903;51.638;7.528;2024-03-02T09:41:57;2.07;;;1.43;;
55009;SDS011;40903;51.638;7.528;2024-03-02T09:44:24;3.23;;;1.73;;
55009;SDS011;40903;51.638;7.528;2024-03-02T09:46:51;4.20;;;1.80;;
55009;SDS011;40903;51.638;7.528;2024-03-02T09:49:17;1.60;;;1.50;;
55009;SDS011;40903;51.638;7.528;2024-03-02T09:51:48;3.07;;;1.50;;
55009;SDS011;40903;51.638;7.528;2024-03-02T09:54:17;2.20;;;1.43;;
55009;SDS011;40903;51.638;7.528;2024-03-02T09:56:42;3.00;;;1.60;;
55009;SDS011;40903;51.638;7.528;2024-03-02T09:59:09;2.13;;;1.40;;
55009;SDS011;40903;51.638;7.528;2024-03-02T10:01:34;2.87;;;1.33;;
55009;SDS011;40903;51.638;7.528;2024-03-02T10:04:00;0.83;;;0.83;;
55009;SDS011;40903;51.638;7.528;2024-03-02T10:06:27;1.20;;;0.90;;
55009;SDS011;40903;51.638;7.528;2024-03-02T10:08:54;0.93;;;0.83;;
55009;SDS011;40903;51.638;7.528;2024-03-02T10:11:30;0.97;;;0.90;;
55009;SDS011;40903;51.638;7.528;2024-03-02T10:14:04;2.07;;;0.97;;
55009;SDS011;40903;51.638;7.528;2024-03-02T10:21:45;3.00;;;1.30;;
55009;SDS011;40903;51.638;7.528;2024-03-02T10:24:14;1.77;;;0.63;;
55009;SDS011;40903;51.638;7.528;2024-03-02T10:26:40;2.40;;;0.93;;
55009;SDS011;40903;51.638;7.528;2024-03-02T10:29:07;2.20;;;0.90;;
55009;SDS011;40903;51.638;7.528;2024-03-02T10:31:43;0.80;;;0.80;;
55009;SDS011;40903;51.638;7.528;2024-03-02T10:34:11;1.60;;;0.90;;
55009;SDS011;40903;51.638;7.528;2024-03-02T10:36:40;1.83;;;0.83;;
55009;SDS011;40903;51.638;7.528;2024-03-02T10:39:07;1.30;;;0.93;;
55009;SDS011;40903;51.638;7.528;2024-03-02T10:41:34;1.00;;;0.70;;
55009;SDS011;40903;51.638;7.528;2024-03-02T10:44:04;0.50;;;0.50;;
55009;SDS011;40903;51.638;7.528;2024-03-02T10:46:32;1.57;;;0.83;;
55009;SDS011;40903;51.638;7.528;2024-03-02T10:48:59;0.70;;;0.70;;
55009;SDS011;40903;51.638;7.528;2024-03-02T10:51:26;1.20;;;0.80;;
55009;SDS011;40903;51.638;7.528;2024-03-02T10:53:53;2.87;;;0.70;;
55009;SDS011;40903;51.638;7.528;2024-03-02T10:56:29;1.37;;;0.90;;
55009;SDS011;40903;51.638;7.528;2024-03-02T10:59:06;1.60;;;0.73;;
55009;SDS011;40903;51.638;7.528;2024-03-02T11:01:56;1.37;;;0.70;;
55009;SDS011;40903;51.638;7.528;2024-03-02T11:04:24;1.13;;;0.93;;
55009;SDS011;40903;51.638;7.528;2024-03-02T11:06:50;0.93;;;0.70;;
55009;SDS011;40903;51.638;7.528;2024-03-02T11:09:20;2.70;;;0.90;;
55009;SDS011;40903;51.638;7.528;2024-03-02T11:14:41;0.73;;;0.73;;
55009;SDS011;40903;51.638;7.528;2024-03-02T11:17:13;0.47;;;0.47;;
55009;SDS011;40903;51.638;7.528;2024-03-02T11:19:43;2.07;;;0.93;;
55009;SDS011;40903;51.638;7.528;2024-03-02T11:22:10;2.63;;;1.17;;
55009;SDS011;40903;51.638;7.528;2024-03-02T11:24:37;0.73;;;0.57;;
55009;SDS011;40903;51.638;7.528;2024-03-02T11:27:05;1.67;;;0.70;;
55009;SDS011;40903;51.638;7.528;2024-03-02T11:32:04;1.10;;;0.87;;
55009;SDS011;40903;51.638;7.528;2024-03-02T11:34:31;1.27;;;0.93;;
55009;SDS011;40903;51.638;7.528;2024-03-02T11:37:00;2.23;;;1.00;;
55009;SDS011;40903;51.638;7.528;2024-03-02T11:39:27;1.00;;;0.90;;
55009;SDS011;40903;51.638;7.528;2024-03-02T11:41:54;2.53;;;0.73;;
55009;SDS011;40903;51.638;7.528;2024-03-02T11:44:21;1.20;;;0.77;;
55009;SDS011;40903;51.638;7.528;2024-03-02T11:46:51;0.77;;;0.60;;
55009;SDS011;40903;51.638;7.528;2024-03-02T11:49:49;0.67;;;0.60;;
55009;SDS011;40903;51.638;7.528;2024-03-02T11:52:16;1.00;;;0.90;;
55009;SDS011;40903;51.638;7.528;2024-03-02T11:54:45;1.03;;;0.70;;
55009;SDS011;40903;51.638;7.528;2024-03-02T11:57:14;0.80;;;0.80;;
55009;SDS011;40903;51.638;7.528;2024-03-02T11:59:40;2.97;;;0.70;;
55009;SDS011;40903;51.638;7.528;2024-03-02T12:02:06;0.80;;;0.63;;
55009;SDS011;40903;51.638;7.528;2024-03-02T12:04:37;1.77;;;0.77;;
55009;SDS011;40903;51.638;7.528;2024-03-02T12:07:03;1.67;;;0.70;;
55009;SDS011;40903;51.638;7.528;2024-03-02T12:09:29;1.63;;;0.70;;
55009;SDS011;40903;51.638;7.528;2024-03-02T12:12:01;1.53;;;0.70;;
55009;SDS011;40903;51.638;7.528;2024-03-02T12:14:37;1.97;;;0.80;;
55009;SDS011;40903;51.638;7.528;2024-03-02T12:17:03;0.90;;;0.83;;
55009;SDS011;40903;51.638;7.528;2024-03-02T12:19:32;1.70;;;0.80;;
55009;SDS011;40903;51.638;7.528;2024-03-02T12:21:58;1.00;;;0.80;;
55009;SDS011;40903;51.638;7.528;2024-03-02T12:24:28;0.70;;;0.70;;
55009;SDS011;40903;51.638;7.528;2024-03-02T12:26:54;1.00;;;0.70;;
55009;SDS011;40903;51.638;7.528;2024-03-02T12:29:20;2.00;;;0.93;;
55009;SDS011;40903;51.638;7.528;2024-03-02T12:31:49;3.63;;;0.90;;
55009;SDS011;40903;51.638;7.528;2024-03-02T12:34:17;0.87;;;0.77;;
55009;SDS011;40903;51.638;7.528;2024-03-02T12:36:44;1.07;;;0.63;;
55009;SDS011;40903;51.638;7.528;2024-03-02T12:39:13;0.83;;;0.60;;
55009;SDS011;40903;51.638;7.528;2024-03-02T12:41:39;2.73;;;0.60;;
55009;SDS011;40903;51.638;7.528;2024-03-02T12:44:05;0.60;;;0.60;;
55009;SDS011;40903;51.638;7.528;2024-03-02T12:46:34;1.43;;;0.53;;
55009;SDS011;40903;51.638;7.528;2024-03-02T12:49:07;1.13;;;0.63;;
55009;SDS011;40903;51.638;7.528;2024-03-02T12:51:38;0.57;;;0.57;;
55009;SDS011;40903;51.638;7.528;2024-03-02T12:54:09;1.00;;;0.90;;
55009;SDS011;40903;51.638;7.528;2024-03-02T12:56:36;1.50;;;0.80;;
55009;SDS011;40903;51.638;7.528;2024-03-02T12:59:02;0.80;;;0.70;;
55009;SDS011;40903;51.638;7.528;2024-03-02T13:01:28;1.57;;;1.00;;
55009;SDS011;40903;51.638;7.528;2024-03-02T13:03:54;1.30;;;1.00;;
55009;SDS011;40903;51.638;7.528;2024-03-02T13:06:21;1.07;;;0.63;;
55009;SDS011;40903;51.638;7.528;2024-03-02T13:08:46;0.83;;;0.77;;
55009;SDS011;40903;51.638;7.528;2024-03-02T13:11:12;1.27;;;0.73;;
55009;SDS011;40903;51.638;7.528;2024-03-02T13:13:39;1.70;;;0.70;;
55009;SDS011;40903;51.638;7.528;2024-03-02T13:16:11;0.70;;;0.70;;
55009;SDS011;40903;51.638;7.528;2024-03-02T13:18:40;0.83;;;0.60;;
55009;SDS011;40903;51.638;7.528;2024-03-02T13:21:06;0.70;;;0.70;;
55009;SDS011;40903;51.638;7.528;2024-03-02T13:23:32;0.60;;;0.60;;
55009;SDS011;40903;51.638;7.528;2024-03-02T13:25:58;0.63;;;0.60;;
55009;SDS011;40903;51.638;7.528;2024-03-02T13:28:24;0.83;;;0.70;;
55009;SDS011;40903;51.638;7.528;2024-03-02T13:30:50;0.80;;;0.70;;
55009;SDS011;40903;51.638;7.528;2024-03-02T13:33:16;0.70;;;0.70;;
55009;SDS011;40903;51.638;7.528;2024-03-02T13:35:47;2.27;;;0.83;;
55009;SDS011;40903;51.638;7.528;2024-03-02T13:38:13;1.27;;;0.70;;
55009;SDS011;40903;51.638;7.528;2024-03-02T13:40:40;1.10;;;0.70;;
55009;SDS011;40903;51.638;7.528;2024-03-02T13:43:06;1.53;;;0.80;;
55009;SDS011;40903;51.638;7.528;2024-03-02T13:45:31;1.50;;;0.60;;
55009;SDS011;40903;51.638;7.528;2024-03-02T13:48:00;0.67;;;0.67;;
55009;SDS011;40903;51.638;7.528;2024-03-02T13:50:27;1.63;;;0.80;;
55009;SDS011;40903;51.638;7.528;2024-03-02T13:52:54;1.80;;;0.70;;
55009;SDS011;40903;51.638;7.528;2024-03-02T13:55:20;0.77;;;0.77;;
55009;SDS011;40903;51.638;7.528;2024-03-02T13:57:46;1.87;;;0.80;;
55009;SDS011;40903;51.638;7.528;2024-03-02T14:00:11;0.57;;;0.57;;
55009;SDS011;40903;51.638;7.528;2024-03-02T14:02:38;1.20;;;0.83;;
55009;SDS011;40903;51.638;7.528;2024-03-02T14:05:04;1.00;;;0.90;;
55009;SDS011;40903;51.638;7.528;2024-03-02T14:07:29;1.30;;;0.87;;
55009;SDS011;40903;51.638;7.528;2024-03-02T14:09:55;2.30;;;0.60;;
55009;SDS011;40903;51.638;7.528;2024-03-02T14:12:20;0.93;;;0.83;;
55009;SDS011;40903;51.638;7.528;2024-03-02T14:14:47;0.93;;;0.60;;
55009;SDS011;40903;51.638;7.528;2024-03-02T14:17:12;0.97;;;0.57;;
55009;SDS011;40903;51.638;7.528;2024-03-02T14:19:40;1.87;;;0.70;;
55009;SDS011;40903;51.638;7.528;2024-03-02T14:22:06;0.90;;;0.70;;
55009;SDS011;40903;51.638;7.528;2024-03-02T14:24:31;1.20;;;0.60;;
55009;SDS011;40903;51.638;7.528;2024-03-02T14:26:57;1.00;;;0.80;;
55009;SDS011;40903;51.638;7.528;2024-03-02T14:29:24;0.70;;;0.63;;
55009;SDS011;40903;51.638;7.528;2024-03-02T14:31:49;0.93;;;0.63;;
55009;SDS011;40903;51.638;7.528;2024-03-02T14:34:15;1.70;;;0.67;;
55009;SDS011;40903;51.638;7.528;2024-03-02T14:36:41;0.90;;;0.73;;
55009;SDS011;40903;51.638;7.528;2024-03-02T14:39:08;1.50;;;0.80;;
55009;SDS011;40903;51.638;7.528;2024-03-02T14:41:35;2.60;;;1.10;;
55009;SDS011;40903;51.638;7.528;2024-03-02T14:44:04;1.10;;;0.53;;
55009;SDS011;40903;51.638;7.528;2024-03-02T14:46:29;0.60;;;0.60;;
55009;SDS011;40903;51.638;7.528;2024-03-02T14:48:55;1.77;;;0.73;;
55009;SDS011;40903;51.638;7.528;2024-03-02T14:51:21;1.97;;;0.80;;
55009;SDS011;40903;51.638;7.528;2024-03-02T14:53:46;0.63;;;0.63;;
55009;SDS011;40903;51.638;7.528;2024-03-02T14:56:12;0.70;;;0.70;;
55009;SDS011;40903;51.638;7.528;2024-03-02T14:58:40;1.87;;;0.80;;
55009;SDS011;40903;51.638;7.528;2024-03-02T15:01:07;1.13;;;0.97;;